createdAt,value
2017-05-06T00:00:28.430Z,1013.42
2017-05-06T00:01:39.498Z,1013.4
2017-05-06T00:02:50.509Z,1013.42
2017-05-06T00:04:01.717Z,1013.37
2017-05-06T00:05:13.333Z,1013.4
2017-05-06T00:06:24.346Z,1013.37
2017-05-06T00:07:35.563Z,1013.38
2017-05-06T00:08:46.578Z,1013.36
2017-05-06T00:09:57.601Z,1013.33
2017-05-06T00:11:08.617Z,1013.39
2017-05-06T00:12:19.639Z,1013.34
2017-05-06T00:13:30.854Z,1013.32
2017-05-06T00:14:42.074Z,1013.29
2017-05-06T00:15:53.089Z,1013.26
2017-05-06T00:17:04.096Z,1013.25
2017-05-06T00:18:15.098Z,1013.23
2017-05-06T00:19:26.156Z,1013.24
2017-05-06T00:20:37.375Z,1013.22
2017-05-06T00:21:48.385Z,1013.22
2017-05-06T00:22:59.593Z,1013.17
2017-05-06T00:24:10.612Z,1013.17
2017-05-06T00:25:21.621Z,1013.17
2017-05-06T00:26:32.671Z,1013.14
2017-05-06T00:27:43.880Z,1013.12
2017-05-06T00:28:54.939Z,1013.12
2017-05-06T00:30:05.949Z,1013.07
2017-05-06T00:31:16.957Z,1013.03
2017-05-06T00:32:27.977Z,1013.06
2017-05-06T00:33:38.996Z,1013.02
2017-05-06T00:34:50.005Z,1013.04
2017-05-06T00:36:01.019Z,1013.01
2017-05-06T00:37:12.226Z,1013.03
2017-05-06T00:38:23.238Z,1013.01
2017-05-06T00:39:34.312Z,1013.01
2017-05-06T00:40:45.540Z,1013.04
2017-05-06T00:41:56.754Z,1012.98
2017-05-06T00:43:07.967Z,1012.98
2017-05-06T00:44:18.975Z,1012.96
2017-05-06T00:45:29.987Z,1012.95
2017-05-06T00:46:40.996Z,1012.92
2017-05-06T00:47:52.014Z,1012.9
2017-05-06T00:49:03.232Z,1012.92
2017-05-06T00:50:14.326Z,1012.93
2017-05-06T00:51:25.541Z,1012.88
2017-05-06T00:52:36.570Z,1012.9
2017-05-06T00:53:47.582Z,1012.91
2017-05-06T00:54:58.607Z,1012.87
2017-05-06T00:56:09.619Z,1012.83
2017-05-06T00:57:20.630Z,1012.82
2017-05-06T00:58:31.640Z,1012.79
2017-05-06T00:59:42.652Z,1012.82
2017-05-06T01:00:53.910Z,1012.83
2017-05-06T01:02:04.952Z,1012.82
2017-05-06T01:03:16.374Z,1012.79
2017-05-06T01:04:27.383Z,1012.8
2017-05-06T01:05:38.403Z,1012.78
2017-05-06T01:06:49.820Z,1012.76
2017-05-06T01:08:00.832Z,1012.76
2017-05-06T01:09:11.856Z,1012.74
2017-05-06T01:10:22.901Z,1012.79
2017-05-06T01:11:33.961Z,1012.8
2017-05-06T01:12:44.970Z,1012.8
2017-05-06T01:13:55.990Z,1012.79
2017-05-06T01:15:06.996Z,1012.78
2017-05-06T01:16:18.015Z,1012.81
2017-05-06T01:17:29.019Z,1012.79
2017-05-06T01:18:40.029Z,1012.82
2017-05-06T01:19:51.039Z,1012.86
2017-05-06T01:21:02.253Z,1012.81
2017-05-06T01:22:13.264Z,1012.8
2017-05-06T01:23:24.275Z,1012.8
2017-05-06T01:24:35.293Z,1012.79
2017-05-06T01:25:46.315Z,1012.75
2017-05-06T01:26:57.334Z,1012.7
2017-05-06T01:28:08.341Z,1012.72
2017-05-06T01:29:19.410Z,1012.75
2017-05-06T01:30:30.440Z,1012.72
2017-05-06T01:31:41.453Z,1012.72
2017-05-06T01:32:52.462Z,1012.67
2017-05-06T01:34:03.728Z,1012.67
2017-05-06T01:35:14.947Z,1012.65
2017-05-06T01:36:26.160Z,1012.63
2017-05-06T01:37:37.173Z,1012.63
2017-05-06T01:38:48.273Z,1012.6
2017-05-06T01:39:59.504Z,1012.58
2017-05-06T01:41:10.524Z,1012.58
2017-05-06T01:42:21.542Z,1012.53
2017-05-06T01:43:32.549Z,1012.52
2017-05-06T01:44:43.561Z,1012.51
2017-05-06T01:45:54.781Z,1012.49
2017-05-06T01:47:05.798Z,1012.46
2017-05-06T01:48:16.813Z,1012.47
2017-05-06T01:49:27.872Z,1012.42
2017-05-06T01:50:38.890Z,1012.4
2017-05-06T01:51:49.898Z,1012.39
2017-05-06T01:53:00.922Z,1012.4
2017-05-06T01:54:11.932Z,1012.35
2017-05-06T01:55:22.947Z,1012.42
2017-05-06T01:56:33.955Z,1012.37
2017-05-06T01:57:44.968Z,1012.35
2017-05-06T01:58:55.980Z,1012.34
2017-05-06T02:00:06.979Z,1012.31
2017-05-06T02:01:18.192Z,1012.24
2017-05-06T02:02:29.206Z,1012.2
2017-05-06T02:03:40.220Z,1012.21
2017-05-06T02:04:51.237Z,1012.18
2017-05-06T02:06:02.253Z,1012.16
2017-05-06T02:07:13.260Z,1012.15
2017-05-06T02:08:24.675Z,1012.12
2017-05-06T02:09:35.690Z,1012.13
2017-05-06T02:10:46.766Z,1012.14
2017-05-06T02:11:57.778Z,1012.1
2017-05-06T02:13:08.992Z,1012.09
2017-05-06T02:14:20.010Z,1012.06
2017-05-06T02:15:31.019Z,1012.1
2017-05-06T02:16:42.241Z,1012.08
2017-05-06T02:17:53.255Z,1012.08
2017-05-06T02:19:04.469Z,1012.06
2017-05-06T02:20:15.480Z,1012.07
2017-05-06T02:21:26.749Z,1012.03
2017-05-06T02:22:37.758Z,1012.02
2017-05-06T02:23:49.175Z,1011.96
2017-05-06T02:25:00.196Z,1011.94
2017-05-06T02:26:11.416Z,1011.94
2017-05-06T02:27:22.627Z,1011.94
2017-05-06T02:28:33.644Z,1011.94
2017-05-06T02:29:44.655Z,1011.93
2017-05-06T02:30:55.678Z,1011.9
2017-05-06T02:32:06.690Z,1011.92
2017-05-06T02:33:17.906Z,1011.87
2017-05-06T02:34:28.913Z,1011.86
2017-05-06T02:35:39.930Z,1011.84
2017-05-06T02:36:51.142Z,1011.88
2017-05-06T02:38:02.357Z,1011.87
2017-05-06T02:39:13.418Z,1011.87
2017-05-06T02:40:24.435Z,1011.9
2017-05-06T02:41:35.459Z,1011.85
2017-05-06T02:42:46.477Z,1011.87
2017-05-06T02:43:57.492Z,1011.88
2017-05-06T02:45:08.502Z,1011.85
2017-05-06T02:46:19.721Z,1011.8
2017-05-06T02:47:30.739Z,1011.84
2017-05-06T02:48:41.809Z,1011.86
2017-05-06T02:49:52.829Z,1011.88
2017-05-06T02:51:03.850Z,1011.89
2017-05-06T02:52:14.861Z,1011.88
2017-05-06T02:53:25.878Z,1011.89
2017-05-06T02:54:36.893Z,1011.92
2017-05-06T02:55:48.117Z,1011.92
2017-05-06T02:56:59.331Z,1011.93
2017-05-06T02:58:10.349Z,1011.91
2017-05-06T02:59:21.617Z,1011.91
2017-05-06T03:00:32.829Z,1011.92
2017-05-06T03:01:43.842Z,1011.92
2017-05-06T03:02:54.862Z,1011.9
2017-05-06T03:04:05.874Z,1011.89
2017-05-06T03:05:16.939Z,1011.89
2017-05-06T03:06:28.158Z,1011.9
2017-05-06T03:07:39.174Z,1011.86
2017-05-06T03:08:50.201Z,1011.91
2017-05-06T03:10:01.257Z,1011.91
2017-05-06T03:11:12.269Z,1011.89
2017-05-06T03:12:23.281Z,1011.91
2017-05-06T03:13:34.695Z,1011.9
2017-05-06T03:14:45.705Z,1011.87
2017-05-06T03:15:56.723Z,1011.89
2017-05-06T03:17:07.950Z,1011.84
2017-05-06T03:18:19.176Z,1011.82
2017-05-06T03:19:30.188Z,1011.85
2017-05-06T03:20:41.250Z,1011.83
2017-05-06T03:21:52.268Z,1011.84
2017-05-06T03:23:03.291Z,1011.82
2017-05-06T03:24:14.315Z,1011.83
2017-05-06T03:25:25.325Z,1011.82
2017-05-06T03:26:36.383Z,1011.84
2017-05-06T03:27:47.599Z,1011.8
2017-05-06T03:28:58.618Z,1011.79
2017-05-06T03:30:09.630Z,1011.79
2017-05-06T03:31:20.891Z,1011.79
2017-05-06T03:32:31.928Z,1011.75
2017-05-06T03:33:42.950Z,1011.78
2017-05-06T03:34:53.972Z,1011.8
2017-05-06T03:36:05.187Z,1011.79
2017-05-06T03:37:16.193Z,1011.75
2017-05-06T03:38:27.414Z,1011.77
2017-05-06T03:39:38.423Z,1011.74
2017-05-06T03:40:49.439Z,1011.8
2017-05-06T03:42:00.658Z,1011.75
2017-05-06T03:43:11.872Z,1011.74
2017-05-06T03:44:22.892Z,1011.78
2017-05-06T03:45:33.910Z,1011.75
2017-05-06T03:46:44.919Z,1011.75
2017-05-06T03:47:55.933Z,1011.72
2017-05-06T03:49:06.962Z,1011.77
2017-05-06T03:50:18.181Z,1011.75
2017-05-06T03:51:29.399Z,1011.74
2017-05-06T03:52:40.407Z,1011.73
2017-05-06T03:53:51.637Z,1011.72
2017-05-06T03:55:02.900Z,1011.7
2017-05-06T03:56:13.907Z,1011.7
2017-05-06T03:57:25.129Z,1011.72
2017-05-06T03:58:36.551Z,1011.76
2017-05-06T03:59:47.554Z,1011.77
2017-05-06T04:00:58.591Z,1011.76
2017-05-06T04:02:09.616Z,1011.71
2017-05-06T04:03:20.641Z,1011.72
2017-05-06T04:04:31.705Z,1011.73
2017-05-06T04:05:42.719Z,1011.73
2017-05-06T04:06:53.730Z,1011.72
2017-05-06T04:08:04.751Z,1011.72
2017-05-06T04:09:15.963Z,1011.71
2017-05-06T04:10:26.979Z,1011.7
2017-05-06T04:11:37.990Z,1011.73
2017-05-06T04:12:49.008Z,1011.75
2017-05-06T04:14:00.076Z,1011.74
2017-05-06T04:15:11.095Z,1011.82
2017-05-06T04:16:22.110Z,1011.82
2017-05-06T04:17:33.321Z,1011.83
2017-05-06T04:18:44.341Z,1011.82
2017-05-06T04:19:55.557Z,1011.84
2017-05-06T04:21:06.630Z,1011.81
2017-05-06T04:22:17.646Z,1011.84
2017-05-06T04:23:28.649Z,1011.82
2017-05-06T04:24:39.675Z,1011.8
2017-05-06T04:25:50.696Z,1011.77
2017-05-06T04:27:01.710Z,1011.77
2017-05-06T04:28:12.729Z,1011.78
2017-05-06T04:29:23.737Z,1011.76
2017-05-06T04:30:34.809Z,1011.74
2017-05-06T04:31:45.837Z,1011.75
2017-05-06T04:32:57.056Z,1011.75
2017-05-06T04:34:08.275Z,1011.75
2017-05-06T04:35:19.291Z,1011.74
2017-05-06T04:36:30.303Z,1011.72
2017-05-06T04:37:41.325Z,1011.75
2017-05-06T04:38:52.340Z,1011.72
2017-05-06T04:40:03.549Z,1011.74
2017-05-06T04:41:14.604Z,1011.72
2017-05-06T04:42:25.619Z,1011.71
2017-05-06T04:43:36.658Z,1011.71
2017-05-06T04:44:47.869Z,1011.71
2017-05-06T04:45:58.883Z,1011.69
2017-05-06T04:47:09.949Z,1011.66
2017-05-06T04:48:20.960Z,1011.72
2017-05-06T04:49:31.966Z,1011.75
2017-05-06T04:50:42.978Z,1011.73
2017-05-06T04:51:53.996Z,1011.68
2017-05-06T04:53:05.215Z,1011.69
2017-05-06T04:54:16.230Z,1011.67
2017-05-06T04:55:27.248Z,1011.65
2017-05-06T04:56:38.261Z,1011.67
2017-05-06T04:57:49.266Z,1011.66
2017-05-06T04:59:00.335Z,1011.65
2017-05-06T05:00:11.349Z,1011.69
2017-05-06T05:01:22.359Z,1011.67
2017-05-06T05:02:33.370Z,1011.67
2017-05-06T05:03:44.381Z,1011.69
2017-05-06T05:04:55.443Z,1011.69
2017-05-06T05:06:06.462Z,1011.68
2017-05-06T05:07:17.470Z,1011.69
2017-05-06T05:08:28.484Z,1011.73
2017-05-06T05:09:39.693Z,1011.66
2017-05-06T05:10:50.912Z,1011.72
2017-05-06T05:12:01.926Z,1011.67
2017-05-06T05:13:12.940Z,1011.71
2017-05-06T05:14:24.007Z,1011.67
2017-05-06T05:15:35.018Z,1011.67
2017-05-06T05:16:46.044Z,1011.73
2017-05-06T05:17:57.062Z,1011.72
2017-05-06T05:19:08.077Z,1011.73
2017-05-06T05:20:19.298Z,1011.75
2017-05-06T05:21:30.521Z,1011.72
2017-05-06T05:22:41.738Z,1011.74
2017-05-06T05:23:52.783Z,1011.72
2017-05-06T05:25:03.799Z,1011.71
2017-05-06T05:26:15.013Z,1011.7
2017-05-06T05:27:26.033Z,1011.65
2017-05-06T05:28:37.047Z,1011.68
2017-05-06T05:29:48.119Z,1011.66
2017-05-06T05:30:59.339Z,1011.67
2017-05-06T05:32:10.349Z,1011.63
2017-05-06T05:33:21.367Z,1011.65
2017-05-06T05:34:32.391Z,1011.6
2017-05-06T05:35:43.416Z,1011.59
2017-05-06T05:36:54.436Z,1011.57
2017-05-06T05:38:05.452Z,1011.56
2017-05-06T05:39:16.676Z,1011.53
2017-05-06T05:40:27.740Z,1011.57
2017-05-06T05:41:38.759Z,1011.52
2017-05-06T05:42:49.767Z,1011.45
2017-05-06T05:44:00.981Z,1011.44
2017-05-06T05:45:12.603Z,1011.42
2017-05-06T05:46:23.824Z,1011.44
2017-05-06T05:47:35.049Z,1011.43
2017-05-06T05:48:46.062Z,1011.45
2017-05-06T05:49:57.274Z,1011.41
2017-05-06T05:51:08.341Z,1011.38
2017-05-06T05:52:19.349Z,1011.42
2017-05-06T05:53:30.568Z,1011.4
2017-05-06T05:54:41.578Z,1011.44
2017-05-06T05:55:52.590Z,1011.45
2017-05-06T05:57:03.603Z,1011.34
2017-05-06T05:58:14.820Z,1011.36
2017-05-06T05:59:25.834Z,1011.36
2017-05-06T06:00:36.849Z,1011.32
2017-05-06T06:01:48.116Z,1011.33
2017-05-06T06:02:59.138Z,1011.32
2017-05-06T06:04:10.158Z,1011.31
2017-05-06T06:05:21.372Z,1011.36
2017-05-06T06:06:32.380Z,1011.38
2017-05-06T06:07:43.395Z,1011.39
2017-05-06T06:08:54.605Z,1011.38
2017-05-06T06:10:05.622Z,1011.42
2017-05-06T06:11:16.637Z,1011.42
2017-05-06T06:12:27.853Z,1011.43
2017-05-06T06:13:38.866Z,1011.49
2017-05-06T06:14:50.087Z,1011.49
2017-05-06T06:16:01.504Z,1011.44
2017-05-06T06:17:12.514Z,1011.44
2017-05-06T06:18:23.739Z,1011.43
2017-05-06T06:19:34.805Z,1011.45
2017-05-06T06:20:45.822Z,1011.51
2017-05-06T06:21:56.867Z,1011.5
2017-05-06T06:23:07.901Z,1011.5
2017-05-06T06:24:19.118Z,1011.58
2017-05-06T06:25:30.334Z,1011.56
2017-05-06T06:26:41.553Z,1011.59
2017-05-06T06:27:52.570Z,1011.59
2017-05-06T06:29:03.634Z,1011.58
2017-05-06T06:30:14.649Z,1011.61
2017-05-06T06:31:25.667Z,1011.61
2017-05-06T06:32:36.693Z,1011.64
2017-05-06T06:33:47.712Z,1011.57
2017-05-06T06:34:58.738Z,1011.56
2017-05-06T06:36:09.962Z,1011.55
2017-05-06T06:37:21.192Z,1011.56
2017-05-06T06:38:32.413Z,1011.65
2017-05-06T06:39:43.485Z,1011.54
2017-05-06T06:40:54.512Z,1011.41
2017-05-06T06:42:05.729Z,1011.51
2017-05-06T06:43:16.962Z,1011.42
2017-05-06T06:44:27.988Z,1011.41
2017-05-06T06:45:39.005Z,1011.39
2017-05-06T06:46:50.227Z,1011.42
2017-05-06T06:48:01.254Z,1011.39
2017-05-06T06:49:12.483Z,1011.31
2017-05-06T06:50:23.553Z,1011.3
2017-05-06T06:51:35.003Z,1011.4
2017-05-06T06:52:46.023Z,1011.43
2017-05-06T06:53:57.042Z,1011.51
2017-05-06T06:55:08.060Z,1011.47
2017-05-06T06:56:19.085Z,1011.5
2017-05-06T06:57:30.105Z,1011.67
2017-05-06T06:58:41.125Z,1011.45
2017-05-06T06:59:52.147Z,1011.51
2017-05-06T07:01:03.215Z,1011.66
2017-05-06T07:02:14.430Z,1011.65
2017-05-06T07:03:25.448Z,1011.75
2017-05-06T07:04:36.464Z,1011.54
2017-05-06T07:05:47.684Z,1011.65
2017-05-06T07:06:58.752Z,1011.6
2017-05-06T07:08:09.977Z,1011.6
2017-05-06T07:09:21.006Z,1011.48
2017-05-06T07:10:32.030Z,1011.63
2017-05-06T07:11:43.050Z,1011.6
2017-05-06T07:12:54.277Z,1011.59
2017-05-06T07:14:05.290Z,1011.37
2017-05-06T07:15:16.306Z,1011.34
2017-05-06T07:16:27.324Z,1011.55
2017-05-06T07:17:38.545Z,1011.45
2017-05-06T07:18:49.567Z,1011.66
2017-05-06T07:20:00.602Z,1011.58
2017-05-06T07:21:12.228Z,1011.33
2017-05-06T07:22:23.256Z,1011.31
2017-05-06T07:23:34.279Z,1011.51
2017-05-06T07:24:45.350Z,1011.36
2017-05-06T07:25:56.375Z,1011.4
2017-05-06T07:27:07.395Z,1011.25
2017-05-06T07:28:18.425Z,1011.44
2017-05-06T07:29:29.655Z,1011.12
2017-05-06T07:30:40.892Z,1011.6
2017-05-06T07:31:51.920Z,1011.17
2017-05-06T07:33:03.345Z,1011.59
2017-05-06T07:34:14.415Z,1011.07
2017-05-06T07:35:25.443Z,1011.14
2017-05-06T07:36:36.671Z,1011.71
2017-05-06T07:37:47.691Z,1011.53
2017-05-06T07:38:58.721Z,1011.54
2017-05-06T07:40:09.748Z,1011.47
2017-05-06T07:41:20.767Z,1011.62
2017-05-06T07:42:31.792Z,1011.21
2017-05-06T07:43:42.844Z,1011.11
2017-05-06T07:44:53.936Z,1011.24
2017-05-06T07:46:04.965Z,1011.18
2017-05-06T07:47:16.196Z,1011.05
2017-05-06T07:48:27.223Z,1011.08
2017-05-06T07:49:38.243Z,1011.17
2017-05-06T07:50:49.267Z,1011.8
2017-05-06T07:52:00.488Z,1011.77
2017-05-06T07:53:11.517Z,1011.06
2017-05-06T07:54:22.736Z,1011.05
2017-05-06T07:55:33.800Z,1011.62
2017-05-06T07:56:44.834Z,1011.3
2017-05-06T07:57:56.057Z,1011.23
2017-05-06T07:59:07.076Z,1011.63
2017-05-06T08:00:18.096Z,1011.47
2017-05-06T08:01:29.323Z,1011.23
2017-05-06T08:02:40.550Z,1011.56
2017-05-06T08:03:51.974Z,1011.27
2017-05-06T08:05:03.013Z,1011.69
2017-05-06T08:06:14.119Z,1011.54
2017-05-06T08:07:25.142Z,1010.93
2017-05-06T08:08:36.167Z,1011.04
2017-05-06T08:09:47.191Z,1011.25
2017-05-06T08:10:58.212Z,1011.44
2017-05-06T08:12:09.231Z,1011.12
2017-05-06T08:13:20.249Z,1010.79
2017-05-06T08:14:31.281Z,1010.93
2017-05-06T08:15:42.507Z,1010.84
2017-05-06T08:16:53.605Z,1011.08
2017-05-06T08:18:04.840Z,1010.85
2017-05-06T08:19:15.868Z,1010.94
2017-05-06T08:20:27.094Z,1011.06
2017-05-06T08:21:38.320Z,1011.1
2017-05-06T08:22:49.356Z,1011.75
2017-05-06T08:24:00.385Z,1011.83
2017-05-06T08:25:11.406Z,1011.76
2017-05-06T08:26:22.461Z,1011.45
2017-05-06T08:27:33.485Z,1011.33
2017-05-06T08:28:44.560Z,1010.77
2017-05-06T08:29:55.592Z,1011.14
2017-05-06T08:31:06.622Z,1011
2017-05-06T08:32:17.652Z,1010.98
2017-05-06T08:33:28.674Z,1010.98
2017-05-06T08:34:39.706Z,1010.88
2017-05-06T08:35:50.727Z,1010.87
2017-05-06T08:37:01.753Z,1010.81
2017-05-06T08:38:13.044Z,1010.83
2017-05-06T08:39:24.075Z,1010.84
2017-05-06T08:40:35.317Z,1010.81
2017-05-06T08:41:46.353Z,1010.8
2017-05-06T08:42:57.419Z,1010.79
2017-05-06T08:44:08.446Z,1010.79
2017-05-06T08:45:19.477Z,1010.76
2017-05-06T08:46:30.512Z,1010.76
2017-05-06T08:47:41.547Z,1010.76
2017-05-06T08:48:52.632Z,1010.76
2017-05-06T08:50:03.660Z,1010.77
2017-05-06T08:51:14.690Z,1010.8
2017-05-06T08:52:25.747Z,1010.85
2017-05-06T08:53:36.819Z,1010.86
2017-05-06T08:54:47.852Z,1010.81
2017-05-06T08:55:59.082Z,1010.82
2017-05-06T08:57:10.337Z,1010.8
2017-05-06T08:58:21.375Z,1010.8
2017-05-06T08:59:32.467Z,1010.74
2017-05-06T09:00:43.498Z,1010.73
2017-05-06T09:01:54.534Z,1010.7
2017-05-06T09:03:05.565Z,1010.69
2017-05-06T09:04:16.600Z,1010.74
2017-05-06T09:05:27.634Z,1010.73
2017-05-06T09:06:39.071Z,1010.7
2017-05-06T09:07:50.310Z,1010.69
2017-05-06T09:09:01.350Z,1010.6
2017-05-06T09:10:12.461Z,1010.58
2017-05-06T09:11:23.503Z,1010.49
2017-05-06T09:12:34.544Z,1010.54
2017-05-06T09:13:45.574Z,1010.57
2017-05-06T09:14:56.806Z,1010.58
2017-05-06T09:16:07.835Z,1010.57
2017-05-06T09:17:18.867Z,1010.55
2017-05-06T09:18:29.896Z,1010.57
2017-05-06T09:19:40.930Z,1010.5
2017-05-06T09:20:52.225Z,1010.49
2017-05-06T09:22:03.252Z,1010.46
2017-05-06T09:23:14.290Z,1010.45
2017-05-06T09:24:25.316Z,1010.4
2017-05-06T09:25:36.352Z,1010.37
2017-05-06T09:26:47.434Z,1010.28
2017-05-06T09:27:58.473Z,1010.25
2017-05-06T09:29:09.516Z,1010.17
2017-05-06T09:30:20.585Z,1010.16
2017-05-06T09:31:31.609Z,1010.17
2017-05-06T09:32:42.644Z,1010.14
2017-05-06T09:33:53.681Z,1010.12
2017-05-06T09:35:04.723Z,1010.21
2017-05-06T09:36:15.955Z,1010.27
2017-05-06T09:37:27.012Z,1010.05
2017-05-06T09:38:38.111Z,1010.04
2017-05-06T09:39:49.144Z,1010
2017-05-06T09:41:00.169Z,1010.01
2017-05-06T09:42:11.201Z,1010.07
2017-05-06T09:43:22.434Z,1010.16
2017-05-06T09:44:33.467Z,1010.17
2017-05-06T09:45:44.691Z,1010.1
2017-05-06T09:46:55.740Z,1010.04
2017-05-06T09:48:07.032Z,1010.03
2017-05-06T09:49:18.062Z,1010.14
2017-05-06T09:50:29.093Z,1010.08
2017-05-06T09:51:40.122Z,1010.02
2017-05-06T09:52:51.147Z,1010.11
2017-05-06T09:54:02.377Z,1010
2017-05-06T09:55:13.412Z,1009.94
2017-05-06T09:56:24.447Z,1009.91
2017-05-06T09:57:35.469Z,1009.87
2017-05-06T09:58:46.545Z,1009.85
2017-05-06T09:59:57.785Z,1009.9
2017-05-06T10:01:08.821Z,1009.91
2017-05-06T10:02:19.849Z,1009.84
2017-05-06T10:03:30.882Z,1009.78
2017-05-06T10:04:42.112Z,1009.68
2017-05-06T10:05:53.148Z,1009.73
2017-05-06T10:07:04.189Z,1009.8
2017-05-06T10:08:15.240Z,1009.9
2017-05-06T10:09:26.526Z,1009.69
2017-05-06T10:10:37.762Z,1009.6
2017-05-06T10:11:48.803Z,1009.46
2017-05-06T10:12:59.830Z,1009.55
2017-05-06T10:14:11.277Z,1009.55
2017-05-06T10:15:22.315Z,1009.55
2017-05-06T10:16:33.345Z,1009.47
2017-05-06T10:17:44.382Z,1009.5
2017-05-06T10:18:55.416Z,1009.45
2017-05-06T10:20:06.500Z,1009.55
2017-05-06T10:21:17.731Z,1009.61
2017-05-06T10:22:28.761Z,1009.68
2017-05-06T10:23:39.809Z,1009.55
2017-05-06T10:24:51.049Z,1009.72
2017-05-06T10:26:02.087Z,1009.59
2017-05-06T10:27:13.122Z,1009.7
2017-05-06T10:28:24.155Z,1009.83
2017-05-06T10:29:35.387Z,1009.82
2017-05-06T10:30:46.472Z,1009.85
2017-05-06T10:31:57.713Z,1009.01
2017-05-06T10:33:08.961Z,1008.96
2017-05-06T10:34:20.190Z,1009.68
2017-05-06T10:35:31.214Z,1009.13
2017-05-06T10:36:42.243Z,1010.13
2017-05-06T10:37:53.474Z,1010.34
2017-05-06T10:39:04.513Z,1010.62
2017-05-06T10:40:15.543Z,1010.58
2017-05-06T10:41:26.780Z,1010.64
2017-05-06T10:42:37.802Z,1008.97
2017-05-06T10:43:48.837Z,1008.95
2017-05-06T10:44:59.864Z,1009.37
2017-05-06T10:46:10.897Z,1009.02
2017-05-06T10:47:21.924Z,1008.99
2017-05-06T10:48:33.008Z,1008.95
2017-05-06T10:49:44.042Z,1009.93
2017-05-06T10:50:55.068Z,1009.04
2017-05-06T10:52:06.097Z,1009.11
2017-05-06T10:53:17.136Z,1009.05
2017-05-06T10:54:28.164Z,1009.55
2017-05-06T10:55:39.197Z,1010.13
2017-05-06T10:56:50.226Z,1010.16
2017-05-06T10:58:01.308Z,1010.16
2017-05-06T10:59:12.334Z,1010.25
2017-05-06T11:00:23.570Z,1008.77
2017-05-06T11:01:34.595Z,1008.63
2017-05-06T11:02:45.634Z,1008.54
2017-05-06T11:03:56.664Z,1008.6
2017-05-06T11:05:07.693Z,1008.52
2017-05-06T11:06:18.714Z,1008.5
2017-05-06T11:07:29.953Z,1008.65
2017-05-06T11:08:41.028Z,1010.16
2017-05-06T11:09:52.060Z,1008.57
2017-05-06T11:11:03.084Z,1008.68
2017-05-06T11:12:14.120Z,1008.64
2017-05-06T11:13:25.148Z,1009.21
2017-05-06T11:14:36.374Z,1008.55
2017-05-06T11:15:47.408Z,1008.62
2017-05-06T11:16:58.443Z,1008.5
2017-05-06T11:18:09.666Z,1008.5
2017-05-06T11:19:20.739Z,1008.63
2017-05-06T11:20:31.777Z,1008.63
2017-05-06T11:21:43.002Z,1008.65
2017-05-06T11:22:54.032Z,1008.62
2017-05-06T11:24:05.063Z,1008.81
2017-05-06T11:25:16.094Z,1008.48
2017-05-06T11:26:27.122Z,1008.52
2017-05-06T11:27:38.340Z,1008.47
2017-05-06T11:28:49.572Z,1008.68
2017-05-06T11:30:00.709Z,1008.83
2017-05-06T11:31:11.757Z,1008.52
2017-05-06T11:32:22.786Z,1008.39
2017-05-06T11:33:33.813Z,1008.35
2017-05-06T11:34:44.833Z,1008.42
2017-05-06T11:35:55.918Z,1008.82
2017-05-06T11:37:06.943Z,1008.37
2017-05-06T11:38:17.977Z,1008.58
2017-05-06T11:39:29.007Z,1008.32
2017-05-06T11:40:40.077Z,1008.23
2017-05-06T11:41:51.110Z,1008.18
2017-05-06T11:43:02.142Z,1008.21
2017-05-06T11:44:13.377Z,1008.09
2017-05-06T11:45:24.421Z,1008.19
2017-05-06T11:46:35.649Z,1008.2
2017-05-06T11:47:46.676Z,1008.17
2017-05-06T11:48:58.102Z,1008.23
2017-05-06T11:50:09.332Z,1008.21
2017-05-06T11:51:20.364Z,1008.16
2017-05-06T11:52:31.393Z,1008.02
2017-05-06T11:53:42.433Z,1007.97
2017-05-06T11:54:53.460Z,1007.98
2017-05-06T11:56:04.499Z,1008.01
2017-05-06T11:57:15.526Z,1008.03
2017-05-06T11:58:26.596Z,1007.92
2017-05-06T11:59:37.625Z,1007.98
2017-05-06T12:00:48.664Z,1007.97
2017-05-06T12:01:59.695Z,1008.04
2017-05-06T12:03:10.713Z,1008.02
2017-05-06T12:04:21.742Z,1007.83
2017-05-06T12:05:32.754Z,1007.81
2017-05-06T12:06:43.977Z,1007.77
2017-05-06T12:07:55.031Z,1007.74
2017-05-06T12:09:06.252Z,1007.72
2017-05-06T12:10:17.259Z,1007.8
2017-05-06T12:11:28.481Z,1007.77
2017-05-06T12:12:39.490Z,1007.81
2017-05-06T12:13:50.506Z,1007.73
2017-05-06T12:15:01.557Z,1007.67
2017-05-06T12:16:12.575Z,1007.66
2017-05-06T12:17:23.796Z,1007.68
2017-05-06T12:18:34.858Z,1007.74
2017-05-06T12:19:45.883Z,1007.73
2017-05-06T12:20:56.905Z,1007.61
2017-05-06T12:22:07.931Z,1007.61
2017-05-06T12:23:18.940Z,1007.59
2017-05-06T12:24:29.949Z,1007.53
2017-05-06T12:25:41.171Z,1007.61
2017-05-06T12:26:52.199Z,1007.62
2017-05-06T12:28:03.241Z,1007.61
2017-05-06T12:29:14.311Z,1007.62
2017-05-06T12:30:25.341Z,1007.6
2017-05-06T12:31:36.360Z,1007.55
2017-05-06T12:32:47.383Z,1007.56
2017-05-06T12:33:58.433Z,1007.64
2017-05-06T12:35:09.453Z,1007.63
2017-05-06T12:36:20.668Z,1007.58
2017-05-06T12:37:31.701Z,1007.55
2017-05-06T12:38:42.909Z,1007.57
2017-05-06T12:39:54.378Z,1007.58
2017-05-06T12:41:05.391Z,1007.47
2017-05-06T12:42:16.597Z,1007.44
2017-05-06T12:43:27.616Z,1007.47
2017-05-06T12:44:38.826Z,1007.45
2017-05-06T12:45:49.834Z,1007.51
2017-05-06T12:47:00.839Z,1007.4
2017-05-06T12:48:12.059Z,1007.39
2017-05-06T12:49:23.273Z,1007.41
2017-05-06T12:50:34.509Z,1007.37
2017-05-06T12:51:45.524Z,1007.32
2017-05-06T12:52:56.540Z,1007.3
2017-05-06T12:54:07.559Z,1007.29
2017-05-06T12:55:18.769Z,1007.32
2017-05-06T12:56:29.793Z,1007.34
2017-05-06T12:57:41.001Z,1007.31
2017-05-06T12:58:52.016Z,1007.31
2017-05-06T13:00:03.032Z,1007.27
2017-05-06T13:01:14.061Z,1007.32
2017-05-06T13:02:25.111Z,1007.28
2017-05-06T13:03:36.334Z,1007.31
2017-05-06T13:04:47.346Z,1007.31
2017-05-06T13:05:58.365Z,1007.29
2017-05-06T13:07:09.384Z,1007.25
2017-05-06T13:08:20.802Z,1007.21
2017-05-06T13:09:32.008Z,1007.17
2017-05-06T13:10:43.016Z,1007.2
2017-05-06T13:11:54.087Z,1007.23
2017-05-06T13:13:05.104Z,1007.33
2017-05-06T13:14:16.119Z,1007.34
2017-05-06T13:15:27.127Z,1007.24
2017-05-06T13:16:38.333Z,1007.35
2017-05-06T13:17:49.346Z,1007.32
2017-05-06T13:19:00.374Z,1007.25
2017-05-06T13:20:11.803Z,1007.17
2017-05-06T13:21:22.818Z,1007.16
2017-05-06T13:22:33.885Z,1007.11
2017-05-06T13:23:45.104Z,1007.03
2017-05-06T13:24:56.109Z,1006.98
2017-05-06T13:26:07.123Z,1006.95
2017-05-06T13:27:18.138Z,1006.97
2017-05-06T13:28:29.361Z,1006.97
2017-05-06T13:29:40.373Z,1006.96
2017-05-06T13:30:51.582Z,1006.93
2017-05-06T13:32:02.605Z,1006.88
2017-05-06T13:33:13.667Z,1006.92
2017-05-06T13:34:24.684Z,1006.97
2017-05-06T13:35:35.707Z,1006.9
2017-05-06T13:36:46.726Z,1006.87
2017-05-06T13:37:57.946Z,1006.87
2017-05-06T13:39:08.963Z,1006.88
2017-05-06T13:40:19.975Z,1006.89
2017-05-06T13:41:30.976Z,1006.84
2017-05-06T13:42:42.202Z,1006.85
2017-05-06T13:43:53.276Z,1006.79
2017-05-06T13:45:04.282Z,1006.77
2017-05-06T13:46:15.293Z,1006.72
2017-05-06T13:47:26.494Z,1006.71
2017-05-06T13:48:37.512Z,1006.7
2017-05-06T13:49:48.527Z,1006.7
2017-05-06T13:50:59.541Z,1006.64
2017-05-06T13:52:10.565Z,1006.63
2017-05-06T13:53:21.580Z,1006.59
2017-05-06T13:54:32.604Z,1006.57
2017-05-06T13:55:43.619Z,1006.56
2017-05-06T13:56:54.644Z,1006.51
2017-05-06T13:58:05.859Z,1006.55
2017-05-06T13:59:16.864Z,1006.52
2017-05-06T14:00:27.884Z,1006.52
2017-05-06T14:01:38.956Z,1006.58
2017-05-06T14:02:50.167Z,1006.54
2017-05-06T14:04:01.370Z,1006.52
2017-05-06T14:05:12.589Z,1006.47
2017-05-06T14:06:23.605Z,1006.46
2017-05-06T14:07:34.622Z,1006.4
2017-05-06T14:08:45.623Z,1006.42
2017-05-06T14:09:56.631Z,1006.46
2017-05-06T14:11:07.700Z,1006.47
2017-05-06T14:12:18.708Z,1006.49
2017-05-06T14:13:29.924Z,1006.45
2017-05-06T14:14:41.136Z,1006.38
2017-05-06T14:15:52.346Z,1006.39
2017-05-06T14:17:03.560Z,1006.38
2017-05-06T14:18:14.573Z,1006.37
2017-05-06T14:19:25.791Z,1006.37
2017-05-06T14:20:37.001Z,1006.32
2017-05-06T14:21:48.276Z,1006.37
2017-05-06T14:22:59.290Z,1006.37